Flight Track Log - Related Links

Times and Time Zones

All times are in EDT time to prevent confusion due to time zone crossing. See the SWA620 flight status page for this flight to view local times or setup timezone preferences in your user account.

Time Position Orientation Groundspeed Altitude Reporting Facility
EDT Latitude Longitude Course Direction KTS MPH feet Rate Location/Type
Sat 01:00:37 PM 32.7547 -117.2800 285° West 204 235 3,700  Level Los Angeles Center
Sat 01:01:39 PM 32.7131 -117.3289 225° Southwest 244 281 7,100 3,435 Climbing Los Angeles Center
Sat 01:02:41 PM 32.6506 -117.2450 131° Southeast 291 335 10,800 3,194 Climbing Los Angeles Center
Sat 01:03:43 PM 32.6347 -117.1383 100° East 326 375 13,700 2,735 Climbing Los Angeles Center
Sat 01:04:57 PM 32.6175 -117.0264 100° East 340 391 17,000 2,759 Climbing Los Angeles Center
Sat 01:05:00 PM 32.8413 -116.4908 82° East  Level Estimated
Sat 01:06:00 PM 32.6192 -116.8861 89° East 362 417 20,000  Level Los Angeles Center
Sat 01:07:02 PM 32.6322 -116.7583 83° East 388 447 22,200 2,274 Climbing Los Angeles Center
Sat 01:08:04 PM 32.6475 -116.6047 83° East 395 455 24,700 2,129 Climbing Los Angeles Center
Sat 01:09:06 PM 32.6589 -116.4725 84° East 412 474 26,600 1,122 Climbing Los Angeles Center
Sat 01:10:07 PM 32.6725 -116.3356 83° East 428 493 27,000 194 Climbing Los Angeles Center
Sat 01:11:10 PM 32.6856 -116.1972 84° East 429 494 27,000  Level Los Angeles Center
Sat 01:12:12 PM 32.6986 -116.0589 84° East 428 493 27,000  Level Los Angeles Center
Sat 01:13:14 PM 32.7139 -115.8922 84° East 426 490 27,000  Level Los Angeles Center
Sat 01:14:16 PM 32.7267 -115.7539 84° East 426 490 27,000  Level Los Angeles Center
Sat 01:15:18 PM 32.7394 -115.6150 84° East 425 489 27,000  Level Los Angeles Center
Sat 01:16:20 PM 32.7511 -115.4761 84° East 425 489 27,000  Level Los Angeles Center
Sat 01:17:22 PM 32.7542 -115.3375 88° East 421 484 27,000  Level Los Angeles Center
Sat 01:18:24 PM 32.7592 -115.1706 88° East 422 486 27,000  Level Los Angeles Center
Sat 01:19:26 PM 32.7628 -115.0331 88° East 417 480 27,000  Level Los Angeles Center
Sat 01:20:28 PM 32.7644 -114.8939 89° East 420 483 27,000  Level Los Angeles Center
Sat 01:21:30 PM 32.7675 -114.7556 88° East 419 482 27,000  Level Los Angeles Center
Sat 01:22:32 PM 32.7700 -114.6183 89° East 417 480 27,000  Level Los Angeles Center
Sat 01:23:34 PM 32.7728 -114.4797 89° East 419 482 27,000  Level Los Angeles Center
Sat 01:24:36 PM 32.7744 -114.3156 89° East 414 476 27,000 -97 Level Los Angeles Center
Sat 01:25:38 PM 32.7744 -114.1769 90° East 419 482 26,800 -968 Descending Los Angeles Center
Sat 01:26:40 PM 32.7778 -114.0403 88° East 415 478 25,000 -871 Descending Los Angeles Center
Sat 01:27:42 PM 32.7869 -113.9042 85° East 416 479 25,000  Level Los Angeles Center
Sat 01:28:44 PM 32.8069 -113.7689 80° East 415 478 25,000  Level Los Angeles Center
Sat 01:29:47 PM 32.8556 -113.6344 67° East 446 513 25,000 -48 Level Los Angeles Center
Sat 01:30:49 PM 32.9519 -113.5072 48° Northeast 447 514 24,900 -1,065 Descending Los Angeles Center
Sat 01:31:51 PM 33.0039 -113.4014 60° Northeast 444 511 22,800 -2,419 Descending Los Angeles Center
Sat 01:32:53 PM 33.0733 -113.2556 60° Northeast 422 486 19,900 -2,516 Descending Los Angeles Center
Sat 01:33:55 PM 33.1286 -113.1419 60° Northeast 399 459 17,600 -2,273 Descending Los Angeles Center
Sat 01:35:05 PM 33.1903 -113.0081 61° Northeast 382 440 14,900 -2,227 Descending Albuquerque Center
Sat 01:36:07 PM 33.2397 -112.9033 61° Northeast 368 423 12,700 -1,597 Descending Albuquerque Center
Sat 01:37:09 PM 33.2875 -112.8025 60° Northeast 355 409 11,600 -1,317 Descending Albuquerque Center
Sat 01:38:10 PM 33.3258 -112.6983 66° East 345 397 10,000 -1,171 Descending Albuquerque Center
Sat 01:39:12 PM 33.3650 -112.5950 66° East 313 360 9,200 -919 Descending Albuquerque Center
Sat 01:40:14 PM 33.3953 -112.5161 65° Northeast 289 333 8,100 -1,016 Descending Albuquerque Center
Sat 01:41:16 PM 33.4264 -112.4300 67° East 283 326 7,100 -1,024 Descending Albuquerque Center
Sat 01:42:17 PM 33.4289 -112.3428 88° East 264 304 6,000 -1,073 Descending Albuquerque Center
Sat 01:43:19 PM 33.4289 -112.2581 90° East 259 298 4,900 -1,161 Descending Albuquerque Center
Sat 01:44:21 PM 33.4289 -112.1736 90° East 206 237 3,600 -1,016 Descending Albuquerque Center
Sat 01:45:23 PM 33.4286 -112.1244 90° East 157 181 2,800 -758 Descending Albuquerque Center
Sat 01:45:56 PM 33.4333 -112.1000 77° East 128 147 2,400 -710 Descending Phoenix TRACON
Sat 01:46:56 PM 33.4333 -112.0500 90° East 133 153 1,700 -474 Descending Phoenix TRACON
Sat 01:48:28 PM 33.4222 -111.9956 104° East 136 157 1,200 -326 Descending Albuquerque Center

Login

Don't have an account? Register now (free) for customized features, flight alerts, and more!